Accueil
METAR-TAF:

METAR-TAF

Aéroports :

Aéroport international de Coni

Coni, Italie

latitude: 44-32-47N, longitude: 007-37-20E, altitude: 386 m

Observation

Le bulletin a été fait il y a 28 minutes, à 03:50 UTC
Vent 5 kt de sud/sud-ouest
Température 9°C
Humidité 87%
Pression 1012 hPa
Visibilité 10 km ou plus

METAR: LIMZ 200350Z AUTO 21005KT 9999 ///////// 09/07 Q1012

Heure: 06:18 (04:18 UTC)

Prévision

Le bulletin a été fait il y a 5 heures et 18 minutes, à 23:00 UTC
Prévision valable du 20 à 00 UTC au 20 à 24 UTC
Vent 5 kt de direction variable
Visibilité 10 km ou plus
Nuages fragmentés à une hauteur de 3000 ft
Probabilité 30% :
Temporairement
du 20 à 14 UTC au 20 à 18 UTC
orage, pluie

TAF: LIMZ 192300Z 2000/2024 VRB05KT 9999 BKN030 PROB30 TEMPO 2014/2018 TSRA

Observations et prévisions météorologiques de plus de 4000 aéroports (messages METAR et TAF).

Les stations disponibles sont représentées par des disques jaunes et rouges sur la carte.

Passer la souris dessus pour voir le nom de la station.

Cliquer dessus pour voir les observations et prévisions météorologiques.

Pour changer de carte: cliquez sur les boutons verts avec une croix noire pour zoomer, sur le bouton vert avec un tiret pour effectuer un zoom arrière, ou sur les flèches vertes pour les cartes adjacentes.


METAR-TAF: